createdAt,value
2023-02-15T00:00:16.228Z,2.90
2023-02-15T00:02:43.881Z,2.80
2023-02-15T00:05:11.464Z,2.80
2023-02-15T00:07:39.021Z,2.80
2023-02-15T00:10:07.873Z,2.80
2023-02-15T00:12:36.466Z,2.80
2023-02-15T00:15:04.370Z,2.90
2023-02-15T00:17:31.955Z,2.90
2023-02-15T00:19:59.532Z,2.90
2023-02-15T00:22:27.304Z,2.80
2023-02-15T00:24:57.298Z,2.90
2023-02-15T00:27:24.937Z,2.90
2023-02-15T00:29:52.518Z,2.80
2023-02-15T00:32:20.166Z,2.90
2023-02-15T00:34:47.740Z,2.90
2023-02-15T00:37:15.367Z,2.90
2023-02-15T00:39:43.259Z,2.90
2023-02-15T00:42:10.846Z,2.90
2023-02-15T00:44:38.388Z,2.90
2023-02-15T00:47:06.018Z,2.90
2023-02-15T00:49:33.601Z,2.90
2023-02-15T00:52:01.203Z,2.90
2023-02-15T00:54:28.790Z,2.90
2023-02-15T00:56:56.422Z,2.90
2023-02-15T00:59:24.082Z,2.90
2023-02-15T01:01:51.703Z,2.90
2023-02-15T01:04:19.354Z,2.90
2023-02-15T01:06:52.856Z,3.00
2023-02-15T01:09:20.445Z,3.00
2023-02-15T01:11:48.084Z,2.90
2023-02-15T01:14:15.738Z,3.00
2023-02-15T01:16:43.348Z,3.00
2023-02-15T01:19:11.949Z,2.90
2023-02-15T01:21:42.732Z,3.00
2023-02-15T01:24:20.207Z,3.00
2023-02-15T01:26:50.605Z,2.90
2023-02-15T01:29:18.175Z,2.90
2023-02-15T01:31:45.957Z,2.90
2023-02-15T01:34:13.646Z,2.90
2023-02-15T01:36:41.303Z,2.90
2023-02-15T01:39:08.983Z,3.00
2023-02-15T01:41:36.708Z,2.90
2023-02-15T01:44:24.488Z,3.00
2023-02-15T01:46:53.972Z,3.00
2023-02-15T01:49:27.565Z,3.00
2023-02-15T01:51:55.344Z,2.90
2023-02-15T01:54:28.570Z,3.00
2023-02-15T01:57:04.392Z,3.00
2023-02-15T01:59:34.083Z,3.00
2023-02-15T02:02:02.847Z,3.00
2023-02-15T02:04:39.750Z,3.00
2023-02-15T02:07:13.502Z,3.00
2023-02-15T02:09:41.151Z,3.00
2023-02-15T02:12:10.149Z,2.90
2023-02-15T02:14:42.343Z,2.90
2023-02-15T02:17:26.143Z,3.00
2023-02-15T02:20:15.176Z,2.90
2023-02-15T02:23:09.014Z,2.90
2023-02-15T02:26:08.303Z,2.80
2023-02-15T02:28:38.608Z,2.90
2023-02-15T02:31:36.901Z,2.80
2023-02-15T02:34:25.308Z,2.80
2023-02-15T02:37:28.768Z,2.90
2023-02-15T02:40:02.409Z,2.90
2023-02-15T02:42:41.100Z,2.90
2023-02-15T02:45:10.250Z,2.80
2023-02-15T02:47:46.704Z,2.90
2023-02-15T02:50:18.794Z,2.80
2023-02-15T02:52:51.982Z,2.80
2023-02-15T02:55:38.489Z,2.80
2023-02-15T02:58:24.630Z,2.80
2023-02-15T03:01:06.819Z,2.80
2023-02-15T03:03:44.792Z,2.70
2023-02-15T03:06:18.824Z,2.70
2023-02-15T03:08:50.269Z,2.70
2023-02-15T03:11:18.360Z,2.70
2023-02-15T03:13:49.183Z,2.70
2023-02-15T03:16:28.502Z,2.70
2023-02-15T03:19:01.549Z,2.70
2023-02-15T03:21:34.203Z,2.60
2023-02-15T03:24:11.625Z,2.60
2023-02-15T03:26:43.231Z,2.70
2023-02-15T03:29:12.290Z,2.70
2023-02-15T03:31:44.362Z,2.70
2023-02-15T03:34:15.925Z,2.70
2023-02-15T03:37:08.138Z,2.70
2023-02-15T03:39:54.075Z,2.70
2023-02-15T03:42:33.133Z,2.70
2023-02-15T03:45:14.324Z,2.70
2023-02-15T03:47:48.905Z,2.80
2023-02-15T03:50:40.118Z,2.90
2023-02-15T03:53:16.692Z,2.80
2023-02-15T03:55:48.601Z,2.80
2023-02-15T03:58:34.831Z,2.70
2023-02-15T04:01:37.240Z,2.70
2023-02-15T04:04:12.980Z,2.80
2023-02-15T04:06:40.641Z,2.70
2023-02-15T04:09:26.988Z,2.80
2023-02-15T04:11:54.590Z,2.70
2023-02-15T04:14:41.141Z,2.80
2023-02-15T04:17:09.953Z,2.80
2023-02-15T04:19:56.271Z,2.70
2023-02-15T04:22:42.317Z,2.70
2023-02-15T04:25:15.948Z,2.70
2023-02-15T04:27:45.742Z,2.60
2023-02-15T04:30:14.877Z,2.60
2023-02-15T04:32:42.897Z,2.70
2023-02-15T04:35:12.275Z,2.60
2023-02-15T04:37:41.040Z,2.60
2023-02-15T04:40:11.129Z,2.60
2023-02-15T04:42:38.772Z,2.60
2023-02-15T04:45:07.507Z,2.70
2023-02-15T04:47:35.495Z,2.70
2023-02-15T04:50:03.216Z,2.60
2023-02-15T04:52:30.825Z,2.60
2023-02-15T04:54:58.497Z,2.50
2023-02-15T04:57:26.098Z,2.60
2023-02-15T04:59:53.739Z,2.60
2023-02-15T05:02:21.406Z,2.50
2023-02-15T05:04:49.034Z,2.50
2023-02-15T05:07:16.695Z,2.40
2023-02-15T05:09:44.328Z,2.50
2023-02-15T05:12:12.454Z,2.50
2023-02-15T05:14:40.021Z,2.50
2023-02-15T05:17:07.655Z,2.50
2023-02-15T05:19:35.266Z,2.50
2023-02-15T05:22:05.478Z,2.50
2023-02-15T05:24:51.935Z,2.50
2023-02-15T05:27:38.464Z,2.50
2023-02-15T05:30:06.887Z,2.50
2023-02-15T05:32:34.657Z,2.40
2023-02-15T05:35:06.509Z,2.50
2023-02-15T05:37:34.407Z,2.50
2023-02-15T05:40:05.101Z,2.50
2023-02-15T05:42:32.696Z,2.50
2023-02-15T05:45:00.275Z,2.50
2023-02-15T05:47:30.160Z,2.50
2023-02-15T05:49:57.794Z,2.40
2023-02-15T05:52:25.899Z,2.30
2023-02-15T05:54:53.551Z,2.40
2023-02-15T05:57:23.813Z,2.50
2023-02-15T05:59:51.355Z,2.40
2023-02-15T06:02:19.227Z,2.50
2023-02-15T06:04:48.466Z,2.40
2023-02-15T06:07:16.128Z,2.50
2023-02-15T06:09:43.752Z,2.50
2023-02-15T06:12:11.385Z,2.60
2023-02-15T06:14:38.946Z,2.50
2023-02-15T06:17:06.594Z,2.50
2023-02-15T06:19:39.103Z,2.60
2023-02-15T06:22:07.337Z,2.50
2023-02-15T06:24:35.016Z,2.40
2023-02-15T06:27:02.786Z,2.40
2023-02-15T06:29:30.367Z,2.40
2023-02-15T06:31:58.038Z,2.20
2023-02-15T06:34:25.720Z,2.30
2023-02-15T06:36:53.331Z,2.30
2023-02-15T06:39:20.934Z,2.40
2023-02-15T06:41:48.494Z,2.40
2023-02-15T06:44:16.152Z,2.40
2023-02-15T06:46:43.859Z,2.30
2023-02-15T06:49:12.709Z,2.30
2023-02-15T06:51:40.329Z,2.30
2023-02-15T06:54:07.949Z,2.30
2023-02-15T06:56:39.632Z,2.20
2023-02-15T06:59:07.284Z,2.30
2023-02-15T07:01:34.925Z,2.30
2023-02-15T07:04:02.636Z,2.30
2023-02-15T07:06:35.498Z,2.30
2023-02-15T07:13:19.274Z,2.40
2023-02-15T07:15:48.360Z,2.40
2023-02-15T07:18:16.124Z,2.40
2023-02-15T07:20:43.758Z,2.50
2023-02-15T07:23:11.433Z,2.60
2023-02-15T07:25:39.067Z,2.60
2023-02-15T07:28:07.036Z,2.70
2023-02-15T07:30:37.377Z,2.60
2023-02-15T07:33:23.728Z,2.60
2023-02-15T07:35:59.032Z,2.60
2023-02-15T07:38:28.643Z,2.70
2023-02-15T07:41:03.921Z,2.60
2023-02-15T07:43:33.358Z,2.60
2023-02-15T07:46:06.590Z,2.60
2023-02-15T07:48:35.176Z,2.60
2023-02-15T07:51:04.809Z,2.60
2023-02-15T07:53:33.258Z,2.60
2023-02-15T07:56:07.397Z,2.60
2023-02-15T07:58:53.839Z,2.60
2023-02-15T08:01:27.619Z,2.60
2023-02-15T08:03:55.801Z,2.50
2023-02-15T08:06:25.570Z,2.60
2023-02-15T08:08:53.961Z,2.70
2023-02-15T08:11:27.198Z,2.60
2023-02-15T08:14:09.519Z,2.60
2023-02-15T08:16:42.855Z,2.60
2023-02-15T08:19:29.615Z,2.70
2023-02-15T08:22:00.025Z,2.60
2023-02-15T08:24:35.832Z,2.70
2023-02-15T08:27:06.144Z,2.60
2023-02-15T08:29:35.541Z,2.70
2023-02-15T08:32:11.003Z,2.70
2023-02-15T08:34:45.685Z,2.60
2023-02-15T08:37:13.246Z,2.70
2023-02-15T08:39:40.900Z,2.60
2023-02-15T08:42:08.498Z,2.70
2023-02-15T08:44:38.844Z,2.70
2023-02-15T08:47:06.458Z,2.70
2023-02-15T08:49:36.650Z,2.70
2023-02-15T08:52:04.391Z,2.70
2023-02-15T08:54:32.049Z,2.70
2023-02-15T08:57:02.462Z,2.70
2023-02-15T08:59:30.026Z,2.70
2023-02-15T09:02:01.906Z,2.60
2023-02-15T09:04:29.661Z,2.70
2023-02-15T09:06:57.253Z,2.70
2023-02-15T09:09:25.088Z,2.70
2023-02-15T09:11:57.666Z,2.80
2023-02-15T09:14:27.953Z,2.80
2023-02-15T09:16:55.784Z,2.90
2023-02-15T09:19:24.367Z,2.90
2023-02-15T09:21:52.524Z,3.00
2023-02-15T09:24:22.961Z,3.00
2023-02-15T09:26:50.836Z,3.00
2023-02-15T09:29:19.583Z,3.00
2023-02-15T09:31:50.897Z,3.00
2023-02-15T09:34:23.270Z,3.00
2023-02-15T09:36:52.069Z,3.10
2023-02-15T09:39:24.496Z,3.10
2023-02-15T09:42:27.289Z,3.10
2023-02-15T09:45:24.677Z,3.20
2023-02-15T09:48:14.240Z,3.10
2023-02-15T09:51:00.980Z,3.20
2023-02-15T09:53:40.288Z,3.20
2023-02-15T09:56:25.536Z,3.30
2023-02-15T09:59:03.096Z,3.30
2023-02-15T10:01:49.857Z,3.30
2023-02-15T10:04:48.531Z,3.30
2023-02-15T10:07:56.805Z,3.30
2023-02-15T10:10:35.981Z,3.30
2023-02-15T10:13:18.388Z,3.30
2023-02-15T10:15:45.927Z,3.30
2023-02-15T10:18:34.081Z,3.30
2023-02-15T10:21:46.762Z,3.40
2023-02-15T10:24:42.037Z,3.50
2023-02-15T10:27:20.030Z,3.50
2023-02-15T10:30:03.177Z,3.50
2023-02-15T10:32:35.947Z,3.50
2023-02-15T10:35:34.365Z,3.50
2023-02-15T10:38:05.938Z,3.50
2023-02-15T10:41:00.852Z,3.50
2023-02-15T10:43:40.318Z,3.50
2023-02-15T10:46:34.889Z,3.50
2023-02-15T10:49:28.442Z,3.60
2023-02-15T10:52:17.186Z,3.70
2023-02-15T10:55:07.959Z,3.70
2023-02-15T10:58:01.145Z,3.70
2023-02-15T11:00:34.422Z,3.80
2023-02-15T11:03:28.884Z,3.90
2023-02-15T11:06:13.227Z,3.80
2023-02-15T11:08:44.781Z,3.80
2023-02-15T11:11:20.271Z,3.90
2023-02-15T11:13:51.928Z,3.90
2023-02-15T11:16:36.774Z,3.80
2023-02-15T11:19:17.550Z,3.80
2023-02-15T11:21:50.853Z,3.80
2023-02-15T11:24:23.670Z,3.90
2023-02-15T11:26:57.726Z,3.90
2023-02-15T11:29:48.248Z,4.00
2023-02-15T11:32:29.325Z,4.00
2023-02-15T11:35:11.939Z,3.90
2023-02-15T11:37:47.524Z,4.00
2023-02-15T11:40:52.841Z,4.10
2023-02-15T11:43:38.983Z,4.10
2023-02-15T11:46:12.020Z,4.20
2023-02-15T11:48:40.632Z,4.20
2023-02-15T11:51:23.854Z,4.20
2023-02-15T11:53:55.966Z,4.30
2023-02-15T11:56:25.626Z,4.40
2023-02-15T11:59:01.579Z,4.40
2023-02-15T12:01:48.725Z,4.60
2023-02-15T12:04:19.463Z,4.50
2023-02-15T12:06:53.741Z,4.60
2023-02-15T12:09:39.686Z,4.50
2023-02-15T12:12:25.952Z,4.50
2023-02-15T12:14:59.123Z,4.70
2023-02-15T12:17:52.949Z,4.70
2023-02-15T12:20:20.599Z,4.80
2023-02-15T12:23:08.151Z,4.80
2023-02-15T12:25:35.989Z,4.80
2023-02-15T12:28:05.236Z,4.80
2023-02-15T12:30:36.919Z,4.90
2023-02-15T12:33:22.775Z,4.80
2023-02-15T12:36:01.873Z,4.90
2023-02-15T12:38:30.539Z,5.00
2023-02-15T12:41:04.582Z,5.20
2023-02-15T12:43:35.748Z,5.20
2023-02-15T12:46:24.960Z,5.10
2023-02-15T12:49:21.442Z,5.20
2023-02-15T12:51:54.756Z,5.20
2023-02-15T12:54:30.675Z,5.20
2023-02-15T12:56:59.563Z,5.20
2023-02-15T12:59:27.214Z,5.20
2023-02-15T13:01:55.658Z,5.00
2023-02-15T13:04:23.309Z,5.10
2023-02-15T13:06:53.728Z,5.10
2023-02-15T13:09:39.087Z,5.20
2023-02-15T13:12:21.106Z,5.10
2023-02-15T13:14:55.733Z,5.10
2023-02-15T13:17:32.093Z,5.00
2023-02-15T13:20:08.202Z,5.10
2023-02-15T13:22:43.992Z,4.90
2023-02-15T13:25:28.032Z,4.90
2023-02-15T13:28:02.131Z,5.00
2023-02-15T13:30:36.472Z,5.10
2023-02-15T13:33:09.590Z,5.20
2023-02-15T13:35:55.860Z,5.20
2023-02-15T13:38:35.739Z,5.20
2023-02-15T13:41:10.289Z,5.10
2023-02-15T13:43:57.960Z,5.00
2023-02-15T13:46:52.501Z,4.90
2023-02-15T13:49:52.920Z,4.90
2023-02-15T13:52:29.240Z,4.90
2023-02-15T13:55:26.730Z,4.90
2023-02-15T13:58:25.424Z,4.90
2023-02-15T14:01:11.551Z,4.90
2023-02-15T14:03:59.349Z,5.00
2023-02-15T14:06:52.513Z,5.10
2023-02-15T14:09:28.699Z,5.10
2023-02-15T14:12:11.297Z,5.20
2023-02-15T14:15:02.806Z,5.10
2023-02-15T14:18:00.097Z,5.10
2023-02-15T14:20:47.465Z,5.20
2023-02-15T14:23:37.157Z,5.10
2023-02-15T14:26:24.180Z,5.20
2023-02-15T14:29:13.899Z,5.20
2023-02-15T14:31:44.814Z,5.10
2023-02-15T14:34:55.901Z,5.10
2023-02-15T14:37:34.886Z,5.10
2023-02-15T14:40:28.245Z,5.20
2023-02-15T14:43:09.749Z,5.10
2023-02-15T14:45:57.207Z,5.10
2023-02-15T14:48:49.011Z,5.20
2023-02-15T14:51:43.981Z,5.20
2023-02-15T14:54:18.350Z,5.20
2023-02-15T14:56:47.313Z,5.30
2023-02-15T14:59:21.731Z,5.40
2023-02-15T15:01:53.639Z,5.30
2023-02-15T15:04:30.535Z,5.30
2023-02-15T15:07:04.540Z,5.30
2023-02-15T15:09:36.227Z,5.20
2023-02-15T15:12:27.008Z,5.10
2023-02-15T15:14:55.316Z,5.20
2023-02-15T15:17:53.395Z,5.20
2023-02-15T15:20:27.110Z,5.30
2023-02-15T15:23:16.568Z,5.30
2023-02-15T15:25:59.436Z,5.30
2023-02-15T15:28:52.183Z,5.20
2023-02-15T15:31:46.821Z,5.10
2023-02-15T15:34:17.221Z,5.10
2023-02-15T15:37:10.281Z,5.00
2023-02-15T15:39:50.606Z,5.10
2023-02-15T15:42:37.517Z,5.00
2023-02-15T15:45:12.071Z,5.00
2023-02-15T15:47:58.745Z,4.90
2023-02-15T15:50:39.732Z,4.90
2023-02-15T15:53:16.538Z,4.80
2023-02-15T15:55:47.465Z,4.80
2023-02-15T15:58:19.105Z,4.80
2023-02-15T16:01:01.456Z,4.70
2023-02-15T16:03:30.544Z,4.70
2023-02-15T16:06:16.435Z,4.70
2023-02-15T16:08:44.609Z,4.70
2023-02-15T16:11:30.708Z,4.70
2023-02-15T16:13:58.629Z,4.60
2023-02-15T16:16:29.693Z,4.60
2023-02-15T16:21:45.224Z,4.50
2023-02-15T16:24:41.099Z,4.50
2023-02-15T16:27:22.504Z,4.50
2023-02-15T16:29:50.281Z,4.50
2023-02-15T16:32:20.486Z,4.40
2023-02-15T16:35:02.947Z,4.40
2023-02-15T16:37:48.771Z,4.40
2023-02-15T16:40:25.590Z,4.40
2023-02-15T16:43:04.485Z,4.30
2023-02-15T16:45:33.475Z,4.40
2023-02-15T16:48:06.593Z,4.40
2023-02-15T16:50:53.191Z,4.40
2023-02-15T16:53:28.215Z,4.40
2023-02-15T16:56:04.972Z,4.30
2023-02-15T16:58:45.109Z,4.30
2023-02-15T17:01:16.565Z,4.30
2023-02-15T17:03:44.287Z,4.30
2023-02-15T17:06:30.310Z,4.30
2023-02-15T17:09:07.012Z,4.30
2023-02-15T17:11:41.989Z,4.20
2023-02-15T17:14:12.357Z,4.20
2023-02-15T17:16:52.363Z,4.10
2023-02-15T17:19:19.905Z,4.20
2023-02-15T17:21:52.079Z,4.20
2023-02-15T17:24:32.561Z,4.20
2023-02-15T17:27:05.720Z,4.20
2023-02-15T17:29:41.453Z,4.20
2023-02-15T17:32:44.448Z,4.10
2023-02-15T17:35:25.776Z,4.20
2023-02-15T17:38:07.273Z,4.20
2023-02-15T17:40:36.837Z,4.20
2023-02-15T17:43:04.488Z,4.20
2023-02-15T17:45:41.259Z,4.20
2023-02-15T17:48:17.949Z,4.20
2023-02-15T17:50:45.578Z,4.20
2023-02-15T17:53:16.554Z,4.20
2023-02-15T17:55:44.993Z,4.20
2023-02-15T17:58:16.331Z,4.20
2023-02-15T18:01:05.332Z,4.20
2023-02-15T18:04:07.882Z,4.20
2023-02-15T18:06:57.644Z,4.20
2023-02-15T18:09:46.022Z,4.10
2023-02-15T18:12:33.040Z,4.20
2023-02-15T18:15:01.751Z,4.20
2023-02-15T18:17:34.282Z,4.20
2023-02-15T18:20:32.533Z,4.20
2023-02-15T18:23:01.966Z,4.20
2023-02-15T18:25:29.656Z,4.10
2023-02-15T18:27:57.383Z,4.10
2023-02-15T18:30:28.177Z,4.10
2023-02-15T18:32:58.097Z,4.10
2023-02-15T18:35:30.807Z,4.10
2023-02-15T18:38:00.712Z,4.10
2023-02-15T18:40:29.440Z,4.10
2023-02-15T18:42:57.459Z,4.20
2023-02-15T18:45:28.616Z,4.10
2023-02-15T18:47:56.445Z,4.10
2023-02-15T18:50:27.134Z,4.00
2023-02-15T18:52:54.896Z,4.10
2023-02-15T18:55:25.471Z,4.00
2023-02-15T18:57:55.194Z,4.00
2023-02-15T19:00:32.767Z,4.00
2023-02-15T19:03:04.340Z,4.00
2023-02-15T19:05:33.645Z,4.00
2023-02-15T19:08:02.418Z,4.00
2023-02-15T19:10:32.983Z,4.00
2023-02-15T19:13:00.743Z,4.00
2023-02-15T19:15:30.549Z,4.10
2023-02-15T19:18:01.431Z,4.10
2023-02-15T19:20:37.300Z,4.10
2023-02-15T19:23:14.504Z,4.10
2023-02-15T19:25:45.233Z,4.10
2023-02-15T19:28:32.777Z,4.10
2023-02-15T19:31:00.645Z,4.10
2023-02-15T19:33:28.346Z,4.10
2023-02-15T19:35:57.495Z,4.10
2023-02-15T19:38:29.034Z,4.10
2023-02-15T19:41:02.486Z,4.10
2023-02-15T19:43:35.232Z,4.10
2023-02-15T19:46:03.393Z,4.10
2023-02-15T19:48:31.242Z,4.10
2023-02-15T19:50:58.900Z,4.10
2023-02-15T19:53:28.683Z,4.10
2023-02-15T19:55:56.287Z,4.10
2023-02-15T19:58:27.094Z,4.10
2023-02-15T20:00:54.673Z,4.10
2023-02-15T20:03:22.478Z,4.00
2023-02-15T20:05:51.657Z,4.10
2023-02-15T20:08:24.675Z,4.00
2023-02-15T20:10:52.555Z,4.00
2023-02-15T20:13:24.400Z,4.00
2023-02-15T20:15:52.304Z,4.00
2023-02-15T20:18:22.441Z,3.90
2023-02-15T20:20:52.585Z,4.00
2023-02-15T20:23:33.540Z,3.90
2023-02-15T20:26:11.604Z,3.90
2023-02-15T20:28:39.175Z,3.90
2023-02-15T20:31:09.359Z,3.90
2023-02-15T20:33:39.623Z,3.90
2023-02-15T20:36:11.406Z,4.00
2023-02-15T20:38:39.060Z,3.80
2023-02-15T20:41:35.434Z,3.80
2023-02-15T20:44:22.110Z,3.80
2023-02-15T20:46:52.830Z,3.80
2023-02-15T20:49:25.219Z,3.80
2023-02-15T20:51:57.836Z,3.70
2023-02-15T20:54:34.716Z,3.70
2023-02-15T20:57:02.384Z,3.70
2023-02-15T20:59:32.516Z,3.70
2023-02-15T21:02:12.685Z,3.70
2023-02-15T21:04:42.828Z,3.70
2023-02-15T21:07:19.620Z,3.60
2023-02-15T21:09:48.145Z,3.60
2023-02-15T21:12:19.865Z,3.70
2023-02-15T21:14:50.090Z,3.50
2023-02-15T21:17:19.408Z,3.50
2023-02-15T21:19:47.074Z,3.50
2023-02-15T21:22:16.253Z,3.50
2023-02-15T21:24:51.768Z,3.50
2023-02-15T21:27:19.421Z,3.60
2023-02-15T21:29:47.069Z,3.50
2023-02-15T21:32:14.922Z,3.60
2023-02-15T21:34:42.833Z,3.50
2023-02-15T21:37:30.294Z,3.60
2023-02-15T21:39:58.150Z,3.70
2023-02-15T21:42:47.325Z,3.50
2023-02-15T21:45:36.156Z,3.50
2023-02-15T21:48:03.931Z,3.50
2023-02-15T21:50:50.390Z,3.50
2023-02-15T21:53:31.780Z,3.50
2023-02-15T21:56:03.277Z,3.40
2023-02-15T21:58:36.421Z,3.40
2023-02-15T22:01:04.523Z,3.40
2023-02-15T22:03:37.638Z,3.40
2023-02-15T22:06:05.709Z,3.30
2023-02-15T22:08:33.984Z,3.20
2023-02-15T22:11:02.096Z,3.20
2023-02-15T22:13:33.886Z,3.10
2023-02-15T22:16:02.954Z,3.10
2023-02-15T22:18:34.436Z,3.10
2023-02-15T22:21:04.465Z,3.10
2023-02-15T22:23:32.337Z,3.10
2023-02-15T22:26:05.387Z,3.10
2023-02-15T22:28:35.573Z,3.10
2023-02-15T22:31:04.680Z,3.10
2023-02-15T22:33:34.369Z,3.10
2023-02-15T22:36:02.091Z,3.10
2023-02-15T22:38:29.945Z,3.10
2023-02-15T22:41:04.951Z,3.10
2023-02-15T22:43:38.034Z,3.10
2023-02-15T22:46:08.343Z,3.20
2023-02-15T22:48:36.091Z,3.10
2023-02-15T22:51:04.146Z,3.10
2023-02-15T22:53:31.935Z,3.10
2023-02-15T22:56:04.528Z,3.10
2023-02-15T22:58:32.378Z,3.10
2023-02-15T23:01:01.916Z,3.20
2023-02-15T23:03:31.440Z,3.10
2023-02-15T23:05:59.328Z,3.00
2023-02-15T23:08:27.026Z,3.00
2023-02-15T23:10:56.727Z,3.00
2023-02-15T23:13:30.109Z,3.00
2023-02-15T23:16:00.719Z,3.10
2023-02-15T23:18:31.294Z,3.10
2023-02-15T23:21:20.537Z,3.10
2023-02-15T23:23:54.233Z,3.10
2023-02-15T23:26:27.696Z,3.10
2023-02-15T23:28:57.910Z,3.10
2023-02-15T23:31:30.416Z,3.10
2023-02-15T23:33:59.528Z,3.30
2023-02-15T23:36:38.632Z,3.20
2023-02-15T23:39:36.608Z,3.30
2023-02-15T23:42:11.455Z,3.30
2023-02-15T23:44:40.750Z,3.30
2023-02-15T23:47:44.823Z,3.20
2023-02-15T23:50:32.904Z,3.20
2023-02-15T23:53:01.290Z,3.20
2023-02-15T23:55:36.373Z,3.10
2023-02-15T23:58:13.426Z,3.10
